createdAt,value
2019-05-10T00:00:10.722Z,1005.49
2019-05-10T00:01:10.706Z,1005.44
2019-05-10T00:02:10.711Z,1005.41
2019-05-10T00:03:10.693Z,1005.49
2019-05-10T00:04:10.689Z,1005.48
2019-05-10T00:05:10.709Z,1005.43
2019-05-10T00:06:10.654Z,1005.36
2019-05-10T00:07:10.631Z,1005.36
2019-05-10T00:08:10.733Z,1005.34
2019-05-10T00:09:10.624Z,1005.33
2019-05-10T00:10:10.606Z,1005.27
2019-05-10T00:11:10.600Z,1005.30
2019-05-10T00:12:17.568Z,1005.21
2019-05-10T00:13:10.567Z,1005.17
2019-05-10T00:14:10.584Z,1005.19
2019-05-10T00:15:10.551Z,1005.15
2019-05-10T00:16:10.544Z,1005.23
2019-05-10T00:17:10.578Z,1005.14
2019-05-10T00:18:10.528Z,1005.12
2019-05-10T00:19:10.522Z,1005.10
2019-05-10T00:20:10.517Z,1005.08
2019-05-10T00:21:10.565Z,1005.08
2019-05-10T00:22:10.479Z,1005.03
2019-05-10T00:23:10.460Z,1004.99
2019-05-10T00:24:10.456Z,1005.07
2019-05-10T00:25:10.494Z,1004.93
2019-05-10T00:26:10.466Z,1005.01
2019-05-10T00:27:10.495Z,1004.94
2019-05-10T00:28:10.421Z,1004.86
2019-05-10T00:29:10.451Z,1004.91
2019-05-10T00:30:10.387Z,1004.91
2019-05-10T00:31:10.425Z,1004.91
2019-05-10T00:32:10.410Z,1004.88
2019-05-10T00:33:10.371Z,1004.83
2019-05-10T00:34:10.345Z,1004.84
2019-05-10T00:35:10.339Z,1004.81
2019-05-10T00:36:10.335Z,1004.75
2019-05-10T00:37:10.323Z,1004.84
2019-05-10T00:38:10.346Z,1004.74
2019-05-10T00:39:10.303Z,1004.69
2019-05-10T00:40:10.292Z,1004.70
2019-05-10T00:41:10.276Z,1004.72
2019-05-10T00:42:10.360Z,1004.72
2019-05-10T00:43:10.261Z,1004.68
2019-05-10T00:44:17.222Z,1004.69
2019-05-10T00:45:10.226Z,1004.67
2019-05-10T00:46:10.216Z,1004.74
2019-05-10T00:47:10.209Z,1004.79
2019-05-10T00:48:10.215Z,1004.70
2019-05-10T00:49:10.204Z,1004.78
2019-05-10T00:50:10.183Z,1004.74
2019-05-10T00:51:10.213Z,1004.57
2019-05-10T00:52:10.151Z,1004.66
2019-05-10T00:53:10.167Z,1004.63
2019-05-10T00:54:10.132Z,1004.69
2019-05-10T00:55:18.535Z,1004.63
2019-05-10T00:56:11.114Z,1004.74
2019-05-10T00:57:10.104Z,1004.64
2019-05-10T00:58:10.098Z,1004.59
2019-05-10T00:59:10.125Z,1004.53
2019-05-10T01:00:10.121Z,1004.52
2019-05-10T01:01:10.060Z,1004.55
2019-05-10T01:02:10.046Z,1004.49
2019-05-10T01:03:10.049Z,1004.44
2019-05-10T01:04:10.037Z,1004.47
2019-05-10T01:05:10.038Z,1004.45
2019-05-10T01:06:10.044Z,1004.38
2019-05-10T01:07:09.995Z,1004.42
2019-05-10T01:08:09.990Z,1004.36
2019-05-10T01:09:09.975Z,1004.29
2019-05-10T01:10:09.982Z,1004.31
2019-05-10T01:11:09.953Z,1004.31
2019-05-10T01:12:09.972Z,1004.27
2019-05-10T01:13:09.937Z,1004.27
2019-05-10T01:14:09.939Z,1004.26
2019-05-10T01:15:09.951Z,1004.24
2019-05-10T01:16:16.881Z,1004.21
2019-05-10T01:17:09.881Z,1004.17
2019-05-10T01:18:09.870Z,1004.21
2019-05-10T01:19:09.863Z,1004.20
2019-05-10T01:20:09.865Z,1004.03
2019-05-10T01:21:10.198Z,1004.11
2019-05-10T01:22:09.843Z,1004.09
2019-05-10T01:23:09.824Z,1004.05
2019-05-10T01:24:09.819Z,1004.13
2019-05-10T01:25:09.815Z,1004.05
2019-05-10T01:26:09.795Z,1004.07
2019-05-10T01:27:09.818Z,1004.07
2019-05-10T01:28:09.792Z,1004.08
2019-05-10T01:29:09.756Z,1004.02
2019-05-10T01:30:09.771Z,1004.11
2019-05-10T01:31:09.745Z,1004.11
2019-05-10T01:32:09.738Z,1004.07
2019-05-10T01:33:09.772Z,1004.04
2019-05-10T01:34:09.701Z,1004.03
2019-05-10T01:35:09.690Z,1004.02
2019-05-10T01:36:09.692Z,1004.01
2019-05-10T01:37:09.687Z,1003.96
2019-05-10T01:38:09.708Z,1003.97
2019-05-10T01:39:09.656Z,1004.01
2019-05-10T01:40:09.698Z,1004.00
2019-05-10T01:41:09.638Z,1004.11
2019-05-10T01:42:09.619Z,1004.08
2019-05-10T01:43:09.610Z,1004.11
2019-05-10T01:44:09.611Z,1004.02
2019-05-10T01:45:09.584Z,1004.05
2019-05-10T01:46:09.585Z,1004.08
2019-05-10T01:47:09.570Z,1004.00
2019-05-10T01:48:18.173Z,1004.01
2019-05-10T01:49:09.610Z,1003.97
2019-05-10T01:50:09.528Z,1004.02
2019-05-10T01:51:09.520Z,1004.04
2019-05-10T01:52:09.508Z,1004.04
2019-05-10T01:53:09.511Z,1004.03
2019-05-10T01:54:09.489Z,1004.07
2019-05-10T01:55:09.487Z,1004.11
2019-05-10T01:56:09.469Z,1004.09
2019-05-10T01:57:09.457Z,1004.07
2019-05-10T01:58:09.466Z,1004.08
2019-05-10T01:59:09.433Z,1004.11
2019-05-10T02:00:09.470Z,1004.15
2019-05-10T02:01:09.452Z,1004.11
2019-05-10T02:02:09.403Z,1004.08
2019-05-10T02:03:09.393Z,1004.09
2019-05-10T02:04:09.381Z,1004.10
2019-05-10T02:05:09.377Z,1004.13
2019-05-10T02:06:09.446Z,1004.11
2019-05-10T02:07:09.372Z,1004.11
2019-05-10T02:08:09.347Z,1004.07
2019-05-10T02:09:09.342Z,1004.05
2019-05-10T02:10:09.337Z,1004.07
2019-05-10T02:11:09.324Z,1004.03
2019-05-10T02:12:09.304Z,1004.07
2019-05-10T02:13:09.365Z,1004.05
2019-05-10T02:14:09.283Z,1004.05
2019-05-10T02:15:09.270Z,1004.05
2019-05-10T02:16:09.299Z,1004.05
2019-05-10T02:17:09.239Z,1004.08
2019-05-10T02:18:09.243Z,1004.08
2019-05-10T02:19:09.268Z,1004.11
2019-05-10T02:20:16.723Z,1004.04
2019-05-10T02:21:09.226Z,1004.00
2019-05-10T02:22:09.199Z,1003.98
2019-05-10T02:23:09.211Z,1004.00
2019-05-10T02:24:09.170Z,1004.01
2019-05-10T02:25:09.164Z,1004.00
2019-05-10T02:26:10.069Z,1003.94
2019-05-10T02:27:09.153Z,1003.90
2019-05-10T02:28:09.128Z,1003.97
2019-05-10T02:29:09.167Z,1003.98
2019-05-10T02:30:09.145Z,1003.91
2019-05-10T02:31:09.098Z,1003.93
2019-05-10T02:32:09.160Z,1003.99
2019-05-10T02:33:09.113Z,1003.99
2019-05-10T02:34:09.075Z,1003.95
2019-05-10T02:35:09.070Z,1003.97
2019-05-10T02:36:09.043Z,1003.99
2019-05-10T02:37:09.032Z,1003.97
2019-05-10T02:38:09.079Z,1004.02
2019-05-10T02:39:09.020Z,1003.99
2019-05-10T02:40:09.014Z,1003.96
2019-05-10T02:41:08.992Z,1003.97
2019-05-10T02:42:08.977Z,1003.93
2019-05-10T02:43:09.049Z,1003.90
2019-05-10T02:44:08.955Z,1003.86
2019-05-10T02:45:08.954Z,1003.89
2019-05-10T02:46:08.941Z,1003.98
2019-05-10T02:47:08.927Z,1003.93
2019-05-10T02:48:09.018Z,1003.88
2019-05-10T02:49:08.915Z,1003.89
2019-05-10T02:50:08.889Z,1003.83
2019-05-10T02:51:08.886Z,1003.91
2019-05-10T02:52:15.851Z,1003.88
2019-05-10T02:53:08.858Z,1003.81
2019-05-10T02:54:08.859Z,1003.83
2019-05-10T02:55:08.838Z,1003.77
2019-05-10T02:56:27.847Z,1003.76
2019-05-10T02:57:09.822Z,1003.78
2019-05-10T02:58:08.803Z,1003.76
2019-05-10T02:59:08.922Z,1003.75
2019-05-10T03:00:08.789Z,1003.64
2019-05-10T03:01:08.771Z,1003.65
2019-05-10T03:02:08.790Z,1003.71
2019-05-10T03:03:08.751Z,1003.66
2019-05-10T03:04:08.751Z,1003.66
2019-05-10T03:05:08.746Z,1003.72
2019-05-10T03:06:08.730Z,1003.63
2019-05-10T03:07:08.766Z,1003.58
2019-05-10T03:08:08.702Z,1003.54
2019-05-10T03:09:08.715Z,1003.58
2019-05-10T03:10:08.688Z,1003.58
2019-05-10T03:11:08.696Z,1003.64
2019-05-10T03:12:08.666Z,1003.56
2019-05-10T03:13:08.642Z,1003.54
2019-05-10T03:14:08.691Z,1003.60
2019-05-10T03:15:08.638Z,1003.63
2019-05-10T03:16:08.620Z,1003.63
2019-05-10T03:17:08.622Z,1003.59
2019-05-10T03:18:08.603Z,1003.57
2019-05-10T03:19:08.578Z,1003.60
2019-05-10T03:20:08.598Z,1003.63
2019-05-10T03:21:08.635Z,1003.63
2019-05-10T03:22:08.547Z,1003.59
2019-05-10T03:23:08.539Z,1003.64
2019-05-10T03:24:16.724Z,1003.58
2019-05-10T03:25:08.517Z,1003.60
2019-05-10T03:26:08.542Z,1003.55
2019-05-10T03:27:08.498Z,1003.56
2019-05-10T03:28:08.486Z,1003.61
2019-05-10T03:29:08.484Z,1003.48
2019-05-10T03:30:08.547Z,1003.51
2019-05-10T03:31:08.497Z,1003.59
2019-05-10T03:32:08.455Z,1003.48
2019-05-10T03:33:08.449Z,1003.52
2019-05-10T03:34:08.481Z,1003.44
2019-05-10T03:35:08.422Z,1003.41
2019-05-10T03:36:08.399Z,1003.42
2019-05-10T03:37:08.461Z,1003.42
2019-05-10T03:38:08.385Z,1003.45
2019-05-10T03:39:08.367Z,1003.36
2019-05-10T03:40:08.390Z,1003.42
2019-05-10T03:41:08.359Z,1003.43
2019-05-10T03:42:08.347Z,1003.39
2019-05-10T03:43:08.429Z,1003.39
2019-05-10T03:44:08.317Z,1003.35
2019-05-10T03:45:08.307Z,1003.36
2019-05-10T03:46:08.295Z,1003.37
2019-05-10T03:47:08.282Z,1003.28
2019-05-10T03:48:08.273Z,1003.34
2019-05-10T03:49:08.374Z,1003.38
2019-05-10T03:50:08.265Z,1003.32
2019-05-10T03:51:08.302Z,1003.31
2019-05-10T03:52:08.232Z,1003.31
2019-05-10T03:53:08.235Z,1003.37
2019-05-10T03:54:08.288Z,1003.30
2019-05-10T03:55:08.189Z,1003.27
2019-05-10T03:56:15.170Z,1003.30
2019-05-10T03:57:13.954Z,1003.31
2019-05-10T03:58:09.231Z,1003.33
2019-05-10T03:59:08.170Z,1003.25
2019-05-10T04:00:08.143Z,1003.29
2019-05-10T04:01:08.130Z,1003.26
2019-05-10T04:02:08.130Z,1003.24
2019-05-10T04:03:08.120Z,1003.24
2019-05-10T04:04:09.637Z,1003.29
2019-05-10T04:05:08.126Z,1003.17
2019-05-10T04:06:08.078Z,1003.19
2019-05-10T04:07:08.069Z,1003.18
2019-05-10T04:08:08.124Z,1003.15
2019-05-10T04:09:08.049Z,1003.08
2019-05-10T04:10:08.042Z,1003.10
2019-05-10T04:11:08.109Z,1003.08
2019-05-10T04:12:08.020Z,1003.10
2019-05-10T04:13:08.002Z,1003.07
2019-05-10T04:14:08.000Z,1003.07
2019-05-10T04:15:07.984Z,1003.01
2019-05-10T04:16:07.997Z,1003.01
2019-05-10T04:17:08.008Z,1003.02
2019-05-10T04:18:07.950Z,1003.03
2019-05-10T04:19:07.949Z,1003.05
2019-05-10T04:20:07.943Z,1003.00
2019-05-10T04:21:07.955Z,1003.03
2019-05-10T04:22:07.905Z,1003.06
2019-05-10T04:23:07.956Z,1003.07
2019-05-10T04:24:07.884Z,1003.18
2019-05-10T04:25:07.889Z,1003.14
2019-05-10T04:26:07.860Z,1003.19
2019-05-10T04:27:07.872Z,1003.12
2019-05-10T04:28:14.816Z,1003.06
2019-05-10T04:29:07.822Z,1003.10
2019-05-10T04:30:07.819Z,1003.11
2019-05-10T04:31:07.808Z,1003.05
2019-05-10T04:32:07.810Z,1003.05
2019-05-10T04:33:07.793Z,1002.95
2019-05-10T04:34:07.785Z,1002.95
2019-05-10T04:35:07.766Z,1002.90
2019-05-10T04:36:12.310Z,1002.97
2019-05-10T04:37:08.736Z,1002.89
2019-05-10T04:38:07.733Z,1002.91
2019-05-10T04:39:07.765Z,1002.92
2019-05-10T04:40:07.714Z,1002.85
2019-05-10T04:41:07.710Z,1002.87
2019-05-10T04:42:07.693Z,1002.91
2019-05-10T04:43:07.685Z,1002.84
2019-05-10T04:44:07.664Z,1002.92
2019-05-10T04:45:07.679Z,1002.85
2019-05-10T04:46:07.644Z,1002.88
2019-05-10T04:47:07.630Z,1002.85
2019-05-10T04:48:07.627Z,1002.90
2019-05-10T04:49:07.636Z,1002.94
2019-05-10T04:50:07.608Z,1002.94
2019-05-10T04:51:07.614Z,1002.93
2019-05-10T04:52:07.579Z,1002.90
2019-05-10T04:53:07.572Z,1002.92
2019-05-10T04:54:07.566Z,1002.90
2019-05-10T04:55:07.668Z,1002.92
2019-05-10T04:56:07.593Z,1002.89
2019-05-10T04:57:07.540Z,1002.89
2019-05-10T04:58:07.523Z,1002.86
2019-05-10T04:59:07.637Z,1002.85
2019-05-10T05:00:14.476Z,1002.88
2019-05-10T05:01:07.487Z,1002.84
2019-05-10T05:02:07.486Z,1002.81
2019-05-10T05:03:07.482Z,1002.82
2019-05-10T05:04:07.447Z,1002.85
2019-05-10T05:05:07.456Z,1002.84
2019-05-10T05:06:07.450Z,1002.79
2019-05-10T05:07:07.439Z,1002.83
2019-05-10T05:08:07.408Z,1002.80
2019-05-10T05:09:07.402Z,1002.83
2019-05-10T05:10:07.429Z,1002.79
2019-05-10T05:11:07.404Z,1002.70
2019-05-10T05:12:07.412Z,1002.67
2019-05-10T05:13:07.382Z,1002.67
2019-05-10T05:14:09.510Z,1002.61
2019-05-10T05:15:07.382Z,1002.64
2019-05-10T05:16:07.354Z,1002.64
2019-05-10T05:17:07.320Z,1002.63
2019-05-10T05:18:07.349Z,1002.62
2019-05-10T05:19:07.293Z,1002.64
2019-05-10T05:20:07.327Z,1002.58
2019-05-10T05:21:07.273Z,1002.56
2019-05-10T05:22:07.277Z,1002.59
2019-05-10T05:23:07.290Z,1002.58
2019-05-10T05:24:07.295Z,1002.55
2019-05-10T05:25:07.233Z,1002.53
2019-05-10T05:26:07.221Z,1002.51
2019-05-10T05:27:07.297Z,1002.55
2019-05-10T05:28:08.569Z,1002.49
2019-05-10T05:29:07.191Z,1002.48
2019-05-10T05:30:07.229Z,1002.53
2019-05-10T05:31:07.164Z,1002.51
2019-05-10T05:32:14.180Z,1002.45
2019-05-10T05:33:07.135Z,1002.47
2019-05-10T05:34:07.139Z,1002.43
2019-05-10T05:35:07.117Z,1002.48
2019-05-10T05:36:07.177Z,1002.45
2019-05-10T05:37:07.096Z,1002.48
2019-05-10T05:38:07.088Z,1002.43
2019-05-10T05:39:07.084Z,1002.41
2019-05-10T05:40:07.085Z,1002.37
2019-05-10T05:41:07.065Z,1002.40
2019-05-10T05:42:07.058Z,1002.44
2019-05-10T05:43:08.293Z,1002.40
2019-05-10T05:44:07.019Z,1002.39
2019-05-10T05:45:07.017Z,1002.35
2019-05-10T05:46:07.053Z,1002.38
2019-05-10T05:47:06.995Z,1002.30
2019-05-10T05:48:07.036Z,1002.26
2019-05-10T05:49:06.979Z,1002.29
2019-05-10T05:50:06.956Z,1002.32
2019-05-10T05:51:06.958Z,1002.31
2019-05-10T05:52:07.028Z,1002.25
2019-05-10T05:53:06.934Z,1002.30
2019-05-10T05:54:06.995Z,1002.24
2019-05-10T05:55:06.905Z,1002.31
2019-05-10T05:56:12.610Z,1002.27
2019-05-10T05:57:07.980Z,1002.34
2019-05-10T05:58:08.651Z,1002.28
2019-05-10T05:59:08.963Z,1002.38
2019-05-10T06:00:06.975Z,1002.31
2019-05-10T06:01:06.869Z,1002.32
2019-05-10T06:02:07.785Z,1002.26
2019-05-10T06:03:06.952Z,1002.38
2019-05-10T06:04:14.310Z,1002.31
2019-05-10T06:05:06.797Z,1002.27
2019-05-10T06:06:15.636Z,1002.26
2019-05-10T06:07:07.788Z,1002.25
2019-05-10T06:08:21.566Z,1002.23
2019-05-10T06:09:07.790Z,1002.27
2019-05-10T06:10:10.413Z,1002.17
2019-05-10T06:11:09.187Z,1002.18
2019-05-10T06:12:07.596Z,1002.16
2019-05-10T06:13:07.726Z,1002.13
2019-05-10T06:14:10.794Z,1002.17
2019-05-10T06:15:07.700Z,1002.19
2019-05-10T06:16:12.685Z,1002.12
2019-05-10T06:17:07.674Z,1002.06
2019-05-10T06:18:09.741Z,1002.09
2019-05-10T06:19:07.657Z,1002.08
2019-05-10T06:20:07.621Z,1002.01
2019-05-10T06:21:06.721Z,1001.95
2019-05-10T06:22:06.928Z,1001.99
2019-05-10T06:23:07.230Z,1001.91
2019-05-10T06:24:07.485Z,1001.90
2019-05-10T06:25:07.613Z,1001.85
2019-05-10T06:26:06.828Z,1001.82
2019-05-10T06:27:06.618Z,1001.84
2019-05-10T06:28:24.120Z,1001.78
2019-05-10T06:29:16.255Z,1001.80
2019-05-10T06:30:07.580Z,1001.81
2019-05-10T06:31:06.531Z,1001.76
2019-05-10T06:32:06.543Z,1001.79
2019-05-10T06:33:12.650Z,1001.75
2019-05-10T06:34:07.554Z,1001.74
2019-05-10T06:35:06.479Z,1001.76
2019-05-10T06:36:13.918Z,1001.76
2019-05-10T06:37:06.481Z,1001.73
2019-05-10T06:38:06.495Z,1001.81
2019-05-10T06:39:06.441Z,1001.76
2019-05-10T06:40:06.428Z,1001.78
2019-05-10T06:41:10.265Z,1001.75
2019-05-10T06:42:07.429Z,1001.72
2019-05-10T06:43:07.051Z,1001.78
2019-05-10T06:44:07.376Z,1001.80
2019-05-10T06:45:14.385Z,1001.75
2019-05-10T06:46:07.354Z,1001.75
2019-05-10T06:47:08.188Z,1001.70
2019-05-10T06:48:06.579Z,1001.72
2019-05-10T06:49:08.465Z,1001.74
2019-05-10T06:50:06.379Z,1001.75
2019-05-10T06:51:09.319Z,1001.69
2019-05-10T06:52:07.296Z,1001.67
2019-05-10T06:53:10.765Z,1001.67
2019-05-10T06:54:07.311Z,1001.69
2019-05-10T06:55:06.284Z,1001.68
2019-05-10T06:56:06.255Z,1001.64
2019-05-10T06:57:11.078Z,1001.70
2019-05-10T06:58:07.294Z,1001.69
2019-05-10T06:59:13.447Z,1001.70
2019-05-10T07:00:08.072Z,1001.72
2019-05-10T07:01:06.202Z,1001.70
2019-05-10T07:02:06.181Z,1001.72
2019-05-10T07:03:06.243Z,1001.68
2019-05-10T07:04:06.213Z,1001.75
2019-05-10T07:05:06.158Z,1001.71
2019-05-10T07:06:06.147Z,1001.78
2019-05-10T07:07:10.290Z,1001.77
2019-05-10T07:09:16.563Z,1001.83
2019-05-10T07:10:19.368Z,1001.68
2019-05-10T07:11:16.907Z,1001.69
2019-05-10T07:12:18.358Z,1001.64
2019-05-10T07:13:15.862Z,1001.63
2019-05-10T07:14:15.836Z,1001.68
2019-05-10T07:15:15.884Z,1001.58
2019-05-10T07:16:24.055Z,1001.63
2019-05-10T07:17:16.802Z,1001.67
2019-05-10T07:18:16.691Z,1001.70
2019-05-10T07:19:16.779Z,1001.68
2019-05-10T07:20:15.766Z,1001.71
2019-05-10T07:21:15.804Z,1001.84
2019-05-10T07:23:16.760Z,1001.83
2019-05-10T07:24:18.502Z,1001.73
2019-05-10T07:25:17.106Z,1001.64
2019-05-10T07:26:17.529Z,1001.71
2019-05-10T07:27:16.700Z,1001.64
2019-05-10T07:28:17.647Z,1001.66
2019-05-10T07:29:29.075Z,1001.55
2019-05-10T07:30:16.658Z,1001.62
2019-05-10T07:31:15.701Z,1001.62
2019-05-10T07:32:16.439Z,1001.67
2019-05-10T07:33:16.639Z,1001.71
2019-05-10T07:34:17.592Z,1001.69
2019-05-10T07:35:15.615Z,1001.77
2019-05-10T07:36:20.485Z,1001.71
2019-05-10T07:37:16.642Z,1001.74
2019-05-10T07:38:15.600Z,1001.68
2019-05-10T07:39:15.569Z,1001.73
2019-05-10T07:40:22.543Z,1001.76
2019-05-10T07:41:19.483Z,1001.70
2019-05-10T07:42:16.551Z,1001.76
2019-05-10T07:43:24.784Z,1001.74
2019-05-10T07:44:16.513Z,1001.76
2019-05-10T07:45:18.621Z,1001.78
2019-05-10T07:46:16.494Z,1001.73
2019-05-10T07:47:15.524Z,1001.71
2019-05-10T07:48:15.484Z,1001.78
2019-05-10T07:49:15.469Z,1001.72
2019-05-10T07:50:15.487Z,1001.80
2019-05-10T07:51:15.434Z,1001.66
2019-05-10T07:52:15.433Z,1001.71
2019-05-10T07:53:16.197Z,1001.71
2019-05-10T07:54:16.411Z,1001.62
2019-05-10T07:55:18.594Z,1001.70
2019-05-10T07:56:16.381Z,1001.65
2019-05-10T07:57:18.468Z,1001.69
2019-05-10T07:58:16.413Z,1001.65
2019-05-10T07:59:16.454Z,1001.65
2019-05-10T08:00:16.357Z,1001.67
2019-05-10T08:01:15.328Z,1001.67
2019-05-10T08:02:15.314Z,1001.68
2019-05-10T08:03:18.784Z,1001.76
2019-05-10T08:04:19.737Z,1001.74
2019-05-10T08:05:18.303Z,1001.78
2019-05-10T08:06:15.689Z,1001.75
2019-05-10T08:07:15.268Z,1001.68
2019-05-10T08:08:15.254Z,1001.69
2019-05-10T08:09:15.240Z,1001.73
2019-05-10T08:10:15.268Z,1001.80
2019-05-10T08:11:15.236Z,1001.68
2019-05-10T08:12:22.193Z,1001.68
2019-05-10T08:13:20.032Z,1001.74
2019-05-10T08:14:16.187Z,1001.64
2019-05-10T08:15:15.180Z,1001.65
2019-05-10T08:16:21.922Z,1001.70
2019-05-10T08:17:16.156Z,1001.73
2019-05-10T08:18:19.969Z,1001.66
2019-05-10T08:19:16.167Z,1001.62
2019-05-10T08:20:29.729Z,1001.63
2019-05-10T08:21:23.790Z,1001.58
2019-05-10T08:22:16.201Z,1001.63
2019-05-10T08:23:17.976Z,1001.55
2019-05-10T08:24:16.790Z,1001.67
2019-05-10T08:25:15.448Z,1001.73
2019-05-10T08:26:20.237Z,1001.76
2019-05-10T08:27:16.176Z,1001.82
2019-05-10T08:28:15.040Z,1001.73
2019-05-10T08:29:16.854Z,1001.71
2019-05-10T08:30:25.421Z,1001.70
2019-05-10T08:31:16.077Z,1001.60
2019-05-10T08:32:19.373Z,1001.63
2019-05-10T08:33:15.994Z,1001.61
2019-05-10T08:34:14.978Z,1001.66
2019-05-10T08:35:17.101Z,1001.67
2019-05-10T08:36:15.011Z,1001.67
2019-05-10T08:37:19.336Z,1001.64
2019-05-10T08:38:15.922Z,1001.68
2019-05-10T08:39:14.916Z,1001.63
2019-05-10T08:40:19.788Z,1001.75
2019-05-10T08:41:18.382Z,1001.66
2019-05-10T08:42:34.744Z,1001.73
2019-05-10T08:43:16.993Z,1001.67
2019-05-10T08:44:23.995Z,1001.70
2019-05-10T08:45:14.848Z,1001.63
2019-05-10T08:46:19.474Z,1001.62
2019-05-10T08:47:24.191Z,1001.66
2019-05-10T08:48:15.817Z,1001.60
2019-05-10T08:49:14.854Z,1001.63
2019-05-10T08:50:28.755Z,1001.63
2019-05-10T08:51:15.797Z,1001.60
2019-05-10T08:52:19.233Z,1001.57
2019-05-10T08:53:16.634Z,1001.61
2019-05-10T08:54:14.754Z,1001.49
2019-05-10T08:55:14.784Z,1001.44
2019-05-10T08:56:20.989Z,1001.41
2019-05-10T08:57:18.556Z,1001.47
2019-05-10T08:58:14.706Z,1001.34
2019-05-10T08:59:21.136Z,1001.43
2019-05-10T09:00:15.776Z,1001.45
2019-05-10T09:01:26.151Z,1001.41
2019-05-10T09:02:20.187Z,1001.40
2019-05-10T09:03:18.565Z,1001.44
2019-05-10T09:04:14.654Z,1001.47
2019-05-10T09:05:14.683Z,1001.52
2019-05-10T09:06:16.775Z,1001.50
2019-05-10T09:07:14.611Z,1001.51
2019-05-10T09:08:20.373Z,1001.56
2019-05-10T09:09:15.638Z,1001.49
2019-05-10T09:10:14.584Z,1001.57
2019-05-10T09:11:16.416Z,1001.65
2019-05-10T09:12:14.561Z,1001.58
2019-05-10T09:13:14.551Z,1001.61
2019-05-10T09:14:20.264Z,1001.56
2019-05-10T09:15:15.535Z,1001.56
2019-05-10T09:16:23.669Z,1001.59
2019-05-10T09:17:22.649Z,1001.49
2019-05-10T09:18:15.487Z,1001.60
2019-05-10T09:19:18.868Z,1001.54
2019-05-10T09:20:20.801Z,1001.56
2019-05-10T09:21:15.518Z,1001.52
2019-05-10T09:22:14.460Z,1001.53
2019-05-10T09:23:19.917Z,1001.49
2019-05-10T09:24:15.446Z,1001.46
2019-05-10T09:25:14.416Z,1001.45
2019-05-10T09:26:16.371Z,1001.46
2019-05-10T09:27:14.399Z,1001.40
2019-05-10T09:28:16.836Z,1001.45
2019-05-10T09:29:14.392Z,1001.41
2019-05-10T09:30:18.438Z,1001.41
2019-05-10T09:31:21.813Z,1001.43
2019-05-10T09:32:15.360Z,1001.44
2019-05-10T09:33:14.775Z,1001.41
2019-05-10T09:34:14.392Z,1001.37
2019-05-10T09:35:14.307Z,1001.42
2019-05-10T09:36:14.297Z,1001.38
2019-05-10T09:37:17.518Z,1001.41
2019-05-10T09:38:14.297Z,1001.44
2019-05-10T09:39:19.584Z,1001.44
2019-05-10T09:40:15.299Z,1001.45
2019-05-10T09:41:14.244Z,1001.48
2019-05-10T09:42:24.963Z,1001.50
2019-05-10T09:43:15.229Z,1001.54
2019-05-10T09:44:14.212Z,1001.55
2019-05-10T09:45:14.205Z,1001.53
2019-05-10T09:46:14.324Z,1001.52
2019-05-10T09:47:14.179Z,1001.44
2019-05-10T09:48:22.970Z,1001.47
2019-05-10T09:49:18.242Z,1001.42
2019-05-10T09:50:14.172Z,1001.41
2019-05-10T09:51:18.970Z,1001.42
2019-05-10T09:52:18.693Z,1001.41
2019-05-10T09:53:21.703Z,1001.41
2019-05-10T09:54:15.114Z,1001.38
2019-05-10T09:55:15.028Z,1001.41
2019-05-10T09:56:14.132Z,1001.37
2019-05-10T09:57:14.068Z,1001.39
2019-05-10T09:58:14.058Z,1001.40
2019-05-10T09:59:14.129Z,1001.46
2019-05-10T10:00:14.044Z,1001.42
2019-05-10T10:01:20.584Z,1001.37
2019-05-10T10:02:16.520Z,1001.37
2019-05-10T10:03:13.999Z,1001.33
2019-05-10T10:04:14.042Z,1001.30
2019-05-10T10:05:14.035Z,1001.28
2019-05-10T10:06:13.978Z,1001.33
2019-05-10T10:07:13.965Z,1001.36
2019-05-10T10:08:13.947Z,1001.34
2019-05-10T10:09:13.934Z,1001.33
2019-05-10T10:10:20.751Z,1001.33
2019-05-10T10:11:18.071Z,1001.37
2019-05-10T10:12:13.903Z,1001.33
2019-05-10T10:13:14.212Z,1001.32
2019-05-10T10:14:13.885Z,1001.30
2019-05-10T10:15:25.301Z,1001.32
2019-05-10T10:16:15.067Z,1001.33
2019-05-10T10:17:17.348Z,1001.38
2019-05-10T10:18:21.198Z,1001.42
2019-05-10T10:19:17.283Z,1001.36
2019-05-10T10:21:30.666Z,1001.41
2019-05-10T10:22:24.571Z,1001.37
2019-05-10T10:23:24.601Z,1001.35
2019-05-10T10:24:24.554Z,1001.36
2019-05-10T10:25:26.904Z,1001.35
2019-05-10T10:26:26.711Z,1001.25
2019-05-10T10:27:26.002Z,1001.30
2019-05-10T10:28:24.519Z,1001.29
2019-05-10T10:29:23.548Z,1001.28
2019-05-10T10:30:23.495Z,1001.31
2019-05-10T10:31:29.671Z,1001.27
2019-05-10T10:32:30.062Z,1001.35
2019-05-10T10:33:25.664Z,1001.39
2019-05-10T10:34:23.463Z,1001.36
2019-05-10T10:35:27.709Z,1001.37
2019-05-10T10:36:27.208Z,1001.38
2019-05-10T10:37:28.296Z,1001.37
2019-05-10T10:38:28.623Z,1001.42
2019-05-10T10:39:24.468Z,1001.39
2019-05-10T10:40:23.386Z,1001.37
2019-05-10T10:41:31.345Z,1001.37
2019-05-10T10:42:24.407Z,1001.38
2019-05-10T10:43:23.356Z,1001.35
2019-05-10T10:44:23.364Z,1001.37
2019-05-10T10:45:23.330Z,1001.38
2019-05-10T10:46:23.334Z,1001.38
2019-05-10T10:47:28.322Z,1001.38
2019-05-10T10:48:24.329Z,1001.33
2019-05-10T10:49:28.029Z,1001.34
2019-05-10T10:50:24.311Z,1001.28
2019-05-10T10:51:26.670Z,1001.20
2019-05-10T10:53:33.067Z,1001.18
2019-05-10T10:54:36.643Z,1001.20
2019-05-10T10:55:37.070Z,1001.15
2019-05-10T10:56:33.989Z,1001.23
2019-05-10T10:57:32.984Z,1001.16
2019-05-10T10:58:32.978Z,1001.17
2019-05-10T10:59:32.991Z,1001.17
2019-05-10T11:00:32.983Z,1001.19
2019-05-10T11:01:46.133Z,1001.18
2019-05-10T11:02:34.320Z,1001.25
2019-05-10T11:03:32.922Z,1001.19
2019-05-10T11:04:32.964Z,1001.18
2019-05-10T11:05:32.910Z,1001.20
2019-05-10T11:06:32.892Z,1001.25
2019-05-10T11:07:35.316Z,1001.23
2019-05-10T11:08:33.333Z,1001.22
2019-05-10T11:09:32.941Z,1001.21
2019-05-10T11:10:32.880Z,1001.26
2019-05-10T11:11:38.629Z,1001.17
2019-05-10T11:12:33.825Z,1001.21
2019-05-10T11:13:44.933Z,1001.22
2019-05-10T11:14:40.095Z,1001.18
2019-05-10T11:15:36.315Z,1001.19
2019-05-10T11:16:32.803Z,1001.20
2019-05-10T11:17:32.773Z,1001.16
2019-05-10T11:18:32.758Z,1001.19
2019-05-10T11:19:32.750Z,1001.18
2019-05-10T11:20:32.737Z,1001.13
2019-05-10T11:21:33.442Z,1001.12
2019-05-10T11:22:32.754Z,1001.18
2019-05-10T11:23:37.618Z,1001.21
2019-05-10T11:25:50.424Z,1001.26
2019-05-10T11:26:44.966Z,1001.22
2019-05-10T11:27:42.449Z,1001.20
2019-05-10T11:28:44.026Z,1001.22
2019-05-10T11:29:42.416Z,1001.21
2019-05-10T11:30:42.409Z,1001.24
2019-05-10T11:31:42.401Z,1001.31
2019-05-10T11:32:42.460Z,1001.30
2019-05-10T11:33:47.230Z,1001.32
2019-05-10T11:34:43.362Z,1001.27
2019-05-10T11:35:42.382Z,1001.32
2019-05-10T11:36:46.120Z,1001.30
2019-05-10T11:37:45.817Z,1001.26
2019-05-10T11:38:46.926Z,1001.28
2019-05-10T11:39:46.861Z,1001.20
2019-05-10T11:40:42.408Z,1001.15
2019-05-10T11:41:42.292Z,1001.10
2019-05-10T11:42:47.074Z,1001.06
2019-05-10T11:43:43.274Z,1001.08
2019-05-10T11:44:50.198Z,1001.08
2019-05-10T11:45:44.167Z,1001.09
2019-05-10T11:46:42.302Z,1001.07
2019-05-10T11:47:42.226Z,1001.05
2019-05-10T11:48:42.491Z,1001.04
2019-05-10T11:49:42.205Z,1001.07
2019-05-10T11:50:42.194Z,1001.03
2019-05-10T11:51:42.177Z,1001.07
2019-05-10T11:52:42.199Z,1001.06
2019-05-10T11:53:42.162Z,1000.99
2019-05-10T11:54:42.158Z,1001.00
2019-05-10T11:55:43.651Z,1000.94
2019-05-10T11:56:51.946Z,1001.00
2019-05-10T11:57:44.152Z,1000.91
2019-05-10T11:58:45.982Z,1000.87
2019-05-10T11:59:43.152Z,1000.86
2019-05-10T12:00:42.078Z,1000.87
2019-05-10T12:01:42.071Z,1000.92
2019-05-10T12:03:01.736Z,1000.93
2019-05-10T12:03:43.082Z,1000.97
2019-05-10T12:04:43.391Z,1000.90
2019-05-10T12:05:42.732Z,1000.87
2019-05-10T12:06:49.871Z,1000.83
2019-05-10T12:08:42.996Z,1000.79
2019-05-10T12:09:42.707Z,1000.72
2019-05-10T12:10:52.420Z,1000.75
2019-05-10T12:11:51.782Z,1000.65